sensor_id;sensor_type;location;lat;lon;timestamp;temperature;humidity
34873;DHT22;21084;51.098;14.506;2023-11-19T00:01:34;3.10;99.90
34873;DHT22;21084;51.098;14.506;2023-11-19T00:04:03;3.10;99.90
34873;DHT22;21084;51.098;14.506;2023-11-19T00:06:32;3.10;99.90
34873;DHT22;21084;51.098;14.506;2023-11-19T00:09:01;3.10;99.90
34873;DHT22;21084;51.098;14.506;2023-11-19T00:11:30;3.10;99.90
34873;DHT22;21084;51.098;14.506;2023-11-19T00:13:59;3.10;99.90
34873;DHT22;21084;51.098;14.506;2023-11-19T00:16:27;3.10;99.90
34873;DHT22;21084;51.098;14.506;2023-11-19T00:18:56;3.20;99.90
34873;DHT22;21084;51.098;14.506;2023-11-19T00:21:24;3.10;99.90
34873;DHT22;21084;51.098;14.506;2023-11-19T00:23:55;3.10;99.90
34873;DHT22;21084;51.098;14.506;2023-11-19T00:26:27;3.10;99.90
34873;DHT22;21084;51.098;14.506;2023-11-19T00:28:55;3.10;99.90
34873;DHT22;21084;51.098;14.506;2023-11-19T00:31:24;3.10;99.90
34873;DHT22;21084;51.098;14.506;2023-11-19T00:33:53;3.10;99.90
34873;DHT22;21084;51.098;14.506;2023-11-19T00:36:21;3.10;99.90
34873;DHT22;21084;51.098;14.506;2023-11-19T00:38:50;3.10;99.90
34873;DHT22;21084;51.098;14.506;2023-11-19T00:41:19;3.10;99.90
34873;DHT22;21084;51.098;14.506;2023-11-19T00:43:49;3.00;99.90
34873;DHT22;21084;51.098;14.506;2023-11-19T00:46:18;3.00;99.90
34873;DHT22;21084;51.098;14.506;2023-11-19T00:48:47;3.00;99.90
34873;DHT22;21084;51.098;14.506;2023-11-19T00:51:16;3.00;99.90
34873;DHT22;21084;51.098;14.506;2023-11-19T00:53:44;3.00;99.90
34873;DHT22;21084;51.098;14.506;2023-11-19T00:56:12;3.00;99.90
34873;DHT22;21084;51.098;14.506;2023-11-19T00:58:41;2.90;99.90
34873;DHT22;21084;51.098;14.506;2023-11-19T01:01:11;3.00;99.90
34873;DHT22;21084;51.098;14.506;2023-11-19T01:03:39;3.00;99.90
34873;DHT22;21084;51.098;14.506;2023-11-19T01:06:08;2.90;99.90
34873;DHT22;21084;51.098;14.506;2023-11-19T01:08:36;2.90;99.90
34873;DHT22;21084;51.098;14.506;2023-11-19T01:11:04;2.90;99.90
34873;DHT22;21084;51.098;14.506;2023-11-19T01:13:33;2.90;99.90
34873;DHT22;21084;51.098;14.506;2023-11-19T01:16:01;2.90;99.90
34873;DHT22;21084;51.098;14.506;2023-11-19T01:18:31;2.90;99.90
34873;DHT22;21084;51.098;14.506;2023-11-19T01:21:00;2.90;99.90
34873;DHT22;21084;51.098;14.506;2023-11-19T01:23:28;2.90;99.90
34873;DHT22;21084;51.098;14.506;2023-11-19T01:25:57;2.90;99.90
34873;DHT22;21084;51.098;14.506;2023-11-19T01:28:25;2.90;99.90
34873;DHT22;21084;51.098;14.506;2023-11-19T01:30:53;2.90;99.90
34873;DHT22;21084;51.098;14.506;2023-11-19T01:33:21;2.90;99.90
34873;DHT22;21084;51.098;14.506;2023-11-19T01:35:51;2.90;99.90
34873;DHT22;21084;51.098;14.506;2023-11-19T01:38:19;2.80;99.90
34873;DHT22;21084;51.098;14.506;2023-11-19T01:40:47;2.80;99.90
34873;DHT22;21084;51.098;14.506;2023-11-19T01:43:30;2.80;99.90
34873;DHT22;21084;51.098;14.506;2023-11-19T01:46:00;2.80;99.90
34873;DHT22;21084;51.098;14.506;2023-11-19T01:48:28;2.80;99.90
34873;DHT22;21084;51.098;14.506;2023-11-19T01:50:58;2.70;99.90
34873;DHT22;21084;51.098;14.506;2023-11-19T01:53:29;2.70;99.90
34873;DHT22;21084;51.098;14.506;2023-11-19T01:55:59;2.70;99.90
34873;DHT22;21084;51.098;14.506;2023-11-19T01:58:27;2.60;99.90
34873;DHT22;21084;51.098;14.506;2023-11-19T02:00:57;2.60;99.90
34873;DHT22;21084;51.098;14.506;2023-11-19T02:03:25;2.60;99.90
34873;DHT22;21084;51.098;14.506;2023-11-19T02:05:58;2.60;99.90
34873;DHT22;21084;51.098;14.506;2023-11-19T02:08:26;2.60;99.90
34873;DHT22;21084;51.098;14.506;2023-11-19T02:10:54;2.60;99.90
34873;DHT22;21084;51.098;14.506;2023-11-19T02:13:24;2.60;99.90
34873;DHT22;21084;51.098;14.506;2023-11-19T02:15:53;2.60;99.90
34873;DHT22;21084;51.098;14.506;2023-11-19T02:18:22;2.60;99.90
34873;DHT22;21084;51.098;14.506;2023-11-19T02:20:51;2.60;99.90
34873;DHT22;21084;51.098;14.506;2023-11-19T02:23:20;2.60;99.90
34873;DHT22;21084;51.098;14.506;2023-11-19T02:25:54;2.60;99.90
34873;DHT22;21084;51.098;14.506;2023-11-19T02:28:25;2.60;99.90
34873;DHT22;21084;51.098;14.506;2023-11-19T02:30:54;2.60;99.90
34873;DHT22;21084;51.098;14.506;2023-11-19T02:33:22;2.70;99.90
34873;DHT22;21084;51.098;14.506;2023-11-19T02:35:51;2.70;99.90
34873;DHT22;21084;51.098;14.506;2023-11-19T02:38:20;2.70;99.90
34873;DHT22;21084;51.098;14.506;2023-11-19T02:40:48;2.70;99.90
34873;DHT22;21084;51.098;14.506;2023-11-19T02:43:17;2.70;99.90
34873;DHT22;21084;51.098;14.506;2023-11-19T02:45:48;2.70;99.90
34873;DHT22;21084;51.098;14.506;2023-11-19T02:48:16;2.70;99.90
34873;DHT22;21084;51.098;14.506;2023-11-19T02:50:44;2.70;99.90
34873;DHT22;21084;51.098;14.506;2023-11-19T02:53:14;2.80;99.90
34873;DHT22;21084;51.098;14.506;2023-11-19T02:55:43;2.80;99.90
34873;DHT22;21084;51.098;14.506;2023-11-19T02:58:15;2.80;99.90
34873;DHT22;21084;51.098;14.506;2023-11-19T03:00:52;2.80;99.90
34873;DHT22;21084;51.098;14.506;2023-11-19T03:03:24;2.80;99.90
34873;DHT22;21084;51.098;14.506;2023-11-19T03:05:58;2.80;99.90
34873;DHT22;21084;51.098;14.506;2023-11-19T03:08:26;2.80;99.90
34873;DHT22;21084;51.098;14.506;2023-11-19T03:10:54;2.90;99.90
34873;DHT22;21084;51.098;14.506;2023-11-19T03:13:22;2.80;99.90
34873;DHT22;21084;51.098;14.506;2023-11-19T03:15:52;2.80;99.90
34873;DHT22;21084;51.098;14.506;2023-11-19T03:18:21;2.90;99.90
34873;DHT22;21084;51.098;14.506;2023-11-19T03:20:49;2.90;99.90
34873;DHT22;21084;51.098;14.506;2023-11-19T03:23:17;2.90;99.90
34873;DHT22;21084;51.098;14.506;2023-11-19T03:25:46;2.90;99.90
34873;DHT22;21084;51.098;14.506;2023-11-19T03:28:14;2.90;99.90
34873;DHT22;21084;51.098;14.506;2023-11-19T03:30:42;2.90;99.90
34873;DHT22;21084;51.098;14.506;2023-11-19T03:33:12;2.90;99.90
34873;DHT22;21084;51.098;14.506;2023-11-19T03:35:41;3.00;99.90
34873;DHT22;21084;51.098;14.506;2023-11-19T03:38:09;3.00;99.90
34873;DHT22;21084;51.098;14.506;2023-11-19T03:40:38;3.00;99.90
34873;DHT22;21084;51.098;14.506;2023-11-19T03:43:07;3.00;99.90
34873;DHT22;21084;51.098;14.506;2023-11-19T03:45:36;3.00;99.90
34873;DHT22;21084;51.098;14.506;2023-11-19T03:48:04;3.00;99.90
34873;DHT22;21084;51.098;14.506;2023-11-19T03:50:34;3.00;99.90
34873;DHT22;21084;51.098;14.506;2023-11-19T03:53:04;3.10;99.90
34873;DHT22;21084;51.098;14.506;2023-11-19T03:55:32;3.10;99.90
34873;DHT22;21084;51.098;14.506;2023-11-19T03:58:00;3.10;99.90
34873;DHT22;21084;51.098;14.506;2023-11-19T04:00:29;3.10;99.90
34873;DHT22;21084;51.098;14.506;2023-11-19T04:02:57;3.10;99.90
34873;DHT22;21084;51.098;14.506;2023-11-19T04:05:25;3.20;99.90
34873;DHT22;21084;51.098;14.506;2023-11-19T04:07:55;3.20;99.90
34873;DHT22;21084;51.098;14.506;2023-11-19T04:10:23;3.20;99.90
34873;DHT22;21084;51.098;14.506;2023-11-19T04:12:51;3.20;99.90
34873;DHT22;21084;51.098;14.506;2023-11-19T04:15:20;3.20;99.90
34873;DHT22;21084;51.098;14.506;2023-11-19T04:17:48;3.20;99.90
34873;DHT22;21084;51.098;14.506;2023-11-19T04:20:16;3.20;99.90
34873;DHT22;21084;51.098;14.506;2023-11-19T04:22:44;3.30;99.90
34873;DHT22;21084;51.098;14.506;2023-11-19T04:25:14;3.30;99.90
34873;DHT22;21084;51.098;14.506;2023-11-19T04:27:43;3.30;99.90
34873;DHT22;21084;51.098;14.506;2023-11-19T04:30:11;3.30;99.90
34873;DHT22;21084;51.098;14.506;2023-11-19T04:32:40;3.30;99.90
34873;DHT22;21084;51.098;14.506;2023-11-19T04:35:09;3.30;99.90
34873;DHT22;21084;51.098;14.506;2023-11-19T04:37:37;3.30;99.90
34873;DHT22;21084;51.098;14.506;2023-11-19T04:40:06;3.30;99.90
34873;DHT22;21084;51.098;14.506;2023-11-19T04:42:36;3.30;99.90
34873;DHT22;21084;51.098;14.506;2023-11-19T04:45:07;3.30;99.90
34873;DHT22;21084;51.098;14.506;2023-11-19T04:47:37;3.30;99.90
34873;DHT22;21084;51.098;14.506;2023-11-19T04:50:06;3.30;99.90
34873;DHT22;21084;51.098;14.506;2023-11-19T04:52:37;3.30;99.90
34873;DHT22;21084;51.098;14.506;2023-11-19T04:55:07;3.20;99.90
34873;DHT22;21084;51.098;14.506;2023-11-19T04:57:40;3.20;99.90
34873;DHT22;21084;51.098;14.506;2023-11-19T05:00:08;3.20;99.90
34873;DHT22;21084;51.098;14.506;2023-11-19T05:02:41;3.20;99.90
34873;DHT22;21084;51.098;14.506;2023-11-19T05:05:09;3.30;99.90
34873;DHT22;21084;51.098;14.506;2023-11-19T05:07:38;3.30;99.90
34873;DHT22;21084;51.098;14.506;2023-11-19T05:10:07;3.30;99.90
34873;DHT22;21084;51.098;14.506;2023-11-19T05:12:36;3.20;99.90
34873;DHT22;21084;51.098;14.506;2023-11-19T05:15:06;3.20;99.90
34873;DHT22;21084;51.098;14.506;2023-11-19T05:17:34;3.30;99.90
34873;DHT22;21084;51.098;14.506;2023-11-19T05:20:05;3.30;99.90
34873;DHT22;21084;51.098;14.506;2023-11-19T05:22:40;3.30;99.90
34873;DHT22;21084;51.098;14.506;2023-11-19T05:25:08;3.20;99.90
34873;DHT22;21084;51.098;14.506;2023-11-19T05:27:37;3.20;99.90
34873;DHT22;21084;51.098;14.506;2023-11-19T05:30:08;3.30;99.90
34873;DHT22;21084;51.098;14.506;2023-11-19T05:32:38;3.30;99.90
34873;DHT22;21084;51.098;14.506;2023-11-19T05:35:07;3.30;99.90
34873;DHT22;21084;51.098;14.506;2023-11-19T05:37:35;3.30;99.90
34873;DHT22;21084;51.098;14.506;2023-11-19T05:40:05;3.30;99.90
34873;DHT22;21084;51.098;14.506;2023-11-19T05:42:42;3.30;99.90
34873;DHT22;21084;51.098;14.506;2023-11-19T05:45:12;3.30;99.90
34873;DHT22;21084;51.098;14.506;2023-11-19T05:47:40;3.30;99.90
34873;DHT22;21084;51.098;14.506;2023-11-19T05:50:10;3.30;99.90
34873;DHT22;21084;51.098;14.506;2023-11-19T05:52:38;3.30;99.90
34873;DHT22;21084;51.098;14.506;2023-11-19T05:55:07;3.30;99.90
34873;DHT22;21084;51.098;14.506;2023-11-19T05:57:37;3.30;99.90
34873;DHT22;21084;51.098;14.506;2023-11-19T06:00:08;3.30;99.90
34873;DHT22;21084;51.098;14.506;2023-11-19T06:02:41;3.30;99.90
34873;DHT22;21084;51.098;14.506;2023-11-19T06:05:10;3.40;99.90
34873;DHT22;21084;51.098;14.506;2023-11-19T06:07:38;3.30;99.90
34873;DHT22;21084;51.098;14.506;2023-11-19T06:10:08;3.40;99.90
34873;DHT22;21084;51.098;14.506;2023-11-19T06:12:38;3.40;99.90
34873;DHT22;21084;51.098;14.506;2023-11-19T06:15:08;3.40;99.90
34873;DHT22;21084;51.098;14.506;2023-11-19T06:17:36;3.40;99.90
34873;DHT22;21084;51.098;14.506;2023-11-19T06:20:07;3.40;99.90
34873;DHT22;21084;51.098;14.506;2023-11-19T06:22:36;3.40;99.90
34873;DHT22;21084;51.098;14.506;2023-11-19T06:25:04;3.40;99.90
34873;DHT22;21084;51.098;14.506;2023-11-19T06:27:35;3.40;99.90
34873;DHT22;21084;51.098;14.506;2023-11-19T06:30:03;3.40;99.90
34873;DHT22;21084;51.098;14.506;2023-11-19T06:32:32;3.40;99.90
34873;DHT22;21084;51.098;14.506;2023-11-19T06:35:00;3.40;99.90
34873;DHT22;21084;51.098;14.506;2023-11-19T06:37:32;3.40;99.90
34873;DHT22;21084;51.098;14.506;2023-11-19T06:40:01;3.40;99.90
34873;DHT22;21084;51.098;14.506;2023-11-19T06:42:29;3.40;99.90
34873;DHT22;21084;51.098;14.506;2023-11-19T06:44:57;3.50;99.90
34873;DHT22;21084;51.098;14.506;2023-11-19T06:47:26;3.50;99.90
34873;DHT22;21084;51.098;14.506;2023-11-19T06:49:55;3.50;99.90
34873;DHT22;21084;51.098;14.506;2023-11-19T06:52:23;3.40;99.90
34873;DHT22;21084;51.098;14.506;2023-11-19T06:54:53;3.40;99.90
34873;DHT22;21084;51.098;14.506;2023-11-19T06:57:34;3.40;99.90
34873;DHT22;21084;51.098;14.506;2023-11-19T07:00:03;3.40;99.90
34873;DHT22;21084;51.098;14.506;2023-11-19T07:02:32;3.40;99.90
34873;DHT22;21084;51.098;14.506;2023-11-19T07:05:01;3.40;99.90
34873;DHT22;21084;51.098;14.506;2023-11-19T07:07:31;3.40;99.90
34873;DHT22;21084;51.098;14.506;2023-11-19T07:10:02;3.50;99.90
34873;DHT22;21084;51.098;14.506;2023-11-19T07:12:31;3.50;99.90
34873;DHT22;21084;51.098;14.506;2023-11-19T07:15:00;3.50;99.90
34873;DHT22;21084;51.098;14.506;2023-11-19T07:17:29;3.50;99.90
34873;DHT22;21084;51.098;14.506;2023-11-19T07:19:57;3.50;99.90
34873;DHT22;21084;51.098;14.506;2023-11-19T07:22:26;3.50;99.90
34873;DHT22;21084;51.098;14.506;2023-11-19T07:24:56;3.60;99.90
34873;DHT22;21084;51.098;14.506;2023-11-19T07:27:27;3.60;99.90
34873;DHT22;21084;51.098;14.506;2023-11-19T07:29:55;3.60;99.90
34873;DHT22;21084;51.098;14.506;2023-11-19T07:32:24;3.60;99.90
34873;DHT22;21084;51.098;14.506;2023-11-19T07:34:53;3.60;99.90
34873;DHT22;21084;51.098;14.506;2023-11-19T07:37:23;3.60;99.90
34873;DHT22;21084;51.098;14.506;2023-11-19T07:39:52;3.60;99.90
34873;DHT22;21084;51.098;14.506;2023-11-19T07:42:20;3.70;99.90
34873;DHT22;21084;51.098;14.506;2023-11-19T07:44:51;3.70;99.90
34873;DHT22;21084;51.098;14.506;2023-11-19T07:47:21;3.70;99.90
34873;DHT22;21084;51.098;14.506;2023-11-19T07:49:51;3.70;99.90
34873;DHT22;21084;51.098;14.506;2023-11-19T07:52:19;3.70;99.90
34873;DHT22;21084;51.098;14.506;2023-11-19T07:54:48;3.70;99.90
34873;DHT22;21084;51.098;14.506;2023-11-19T07:57:16;3.70;99.90
34873;DHT22;21084;51.098;14.506;2023-11-19T07:59:45;3.70;99.90
34873;DHT22;21084;51.098;14.506;2023-11-19T08:02:14;3.70;99.90
34873;DHT22;21084;51.098;14.506;2023-11-19T08:04:43;3.70;99.90
34873;DHT22;21084;51.098;14.506;2023-11-19T08:07:13;3.80;99.90
34873;DHT22;21084;51.098;14.506;2023-11-19T08:09:41;3.80;99.90
34873;DHT22;21084;51.098;14.506;2023-11-19T08:12:10;3.90;99.90
34873;DHT22;21084;51.098;14.506;2023-11-19T08:14:38;3.90;99.90
34873;DHT22;21084;51.098;14.506;2023-11-19T08:17:06;3.90;99.90
34873;DHT22;21084;51.098;14.506;2023-11-19T08:19:36;3.90;99.90
34873;DHT22;21084;51.098;14.506;2023-11-19T08:22:05;4.00;99.90
34873;DHT22;21084;51.098;14.506;2023-11-19T08:24:33;4.00;99.90
34873;DHT22;21084;51.098;14.506;2023-11-19T08:27:01;4.10;99.90
34873;DHT22;21084;51.098;14.506;2023-11-19T08:29:30;4.10;99.90
34873;DHT22;21084;51.098;14.506;2023-11-19T08:31:59;4.20;99.90
34873;DHT22;21084;51.098;14.506;2023-11-19T08:34:29;4.20;99.90
34873;DHT22;21084;51.098;14.506;2023-11-19T08:36:59;4.30;99.90
34873;DHT22;21084;51.098;14.506;2023-11-19T08:39:28;4.30;99.90
34873;DHT22;21084;51.098;14.506;2023-11-19T08:41:57;4.40;99.90
34873;DHT22;21084;51.098;14.506;2023-11-19T08:44:26;4.40;99.90
34873;DHT22;21084;51.098;14.506;2023-11-19T08:46:54;4.50;99.90
34873;DHT22;21084;51.098;14.506;2023-11-19T08:49:22;4.50;99.90
34873;DHT22;21084;51.098;14.506;2023-11-19T08:51:51;4.50;99.90
34873;DHT22;21084;51.098;14.506;2023-11-19T08:54:20;4.60;99.90
34873;DHT22;21084;51.098;14.506;2023-11-19T08:56:49;4.60;99.90
34873;DHT22;21084;51.098;14.506;2023-11-19T08:59:19;4.70;99.90
34873;DHT22;21084;51.098;14.506;2023-11-19T09:01:47;4.70;99.90
34873;DHT22;21084;51.098;14.506;2023-11-19T09:04:15;4.80;99.90
34873;DHT22;21084;51.098;14.506;2023-11-19T09:06:44;4.90;99.90
34873;DHT22;21084;51.098;14.506;2023-11-19T09:09:12;5.00;99.90
34873;DHT22;21084;51.098;14.506;2023-11-19T09:11:42;5.20;99.90
34873;DHT22;21084;51.098;14.506;2023-11-19T09:14:11;5.30;99.90
34873;DHT22;21084;51.098;14.506;2023-11-19T09:16:39;5.50;99.90
34873;DHT22;21084;51.098;14.506;2023-11-19T09:19:07;5.50;99.90
34873;DHT22;21084;51.098;14.506;2023-11-19T09:21:36;5.70;99.90
34873;DHT22;21084;51.098;14.506;2023-11-19T09:24:06;5.80;99.90
34873;DHT22;21084;51.098;14.506;2023-11-19T09:26:35;5.90;99.90
34873;DHT22;21084;51.098;14.506;2023-11-19T09:29:08;6.00;99.90
34873;DHT22;21084;51.098;14.506;2023-11-19T09:31:37;6.00;99.90
34873;DHT22;21084;51.098;14.506;2023-11-19T09:34:05;5.90;99.90
34873;DHT22;21084;51.098;14.506;2023-11-19T09:36:34;5.90;99.90
34873;DHT22;21084;51.098;14.506;2023-11-19T09:39:03;6.00;99.90
34873;DHT22;21084;51.098;14.506;2023-11-19T09:41:32;6.10;99.90
34873;DHT22;21084;51.098;14.506;2023-11-19T09:44:01;6.10;99.90
34873;DHT22;21084;51.098;14.506;2023-11-19T09:46:31;6.20;99.90
34873;DHT22;21084;51.098;14.506;2023-11-19T09:49:00;6.00;99.90
34873;DHT22;21084;51.098;14.506;2023-11-19T09:51:29;6.00;99.90
34873;DHT22;21084;51.098;14.506;2023-11-19T09:53:57;5.90;99.90
34873;DHT22;21084;51.098;14.506;2023-11-19T09:56:25;5.80;99.90
34873;DHT22;21084;51.098;14.506;2023-11-19T09:58:55;5.90;99.90
34873;DHT22;21084;51.098;14.506;2023-11-19T10:01:23;6.00;99.90
34873;DHT22;21084;51.098;14.506;2023-11-19T10:03:56;6.00;99.90
34873;DHT22;21084;51.098;14.506;2023-11-19T10:06:25;6.10;99.90
34873;DHT22;21084;51.098;14.506;2023-11-19T10:08:55;6.20;99.90
34873;DHT22;21084;51.098;14.506;2023-11-19T10:11:23;6.30;99.90
34873;DHT22;21084;51.098;14.506;2023-11-19T10:13:52;6.30;99.90
34873;DHT22;21084;51.098;14.506;2023-11-19T10:16:24;6.40;99.90
34873;DHT22;21084;51.098;14.506;2023-11-19T10:18:57;6.50;99.90
34873;DHT22;21084;51.098;14.506;2023-11-19T10:21:25;6.50;99.90
34873;DHT22;21084;51.098;14.506;2023-11-19T10:23:55;6.50;99.90
34873;DHT22;21084;51.098;14.506;2023-11-19T10:26:26;6.40;99.90
34873;DHT22;21084;51.098;14.506;2023-11-19T10:28:55;6.50;99.90
34873;DHT22;21084;51.098;14.506;2023-11-19T10:31:23;6.60;99.90
34873;DHT22;21084;51.098;14.506;2023-11-19T10:33:52;6.70;99.90
34873;DHT22;21084;51.098;14.506;2023-11-19T10:36:22;6.90;99.90
34873;DHT22;21084;51.098;14.506;2023-11-19T10:38:52;7.30;99.90
34873;DHT22;21084;51.098;14.506;2023-11-19T10:41:27;7.50;99.90
34873;DHT22;21084;51.098;14.506;2023-11-19T10:43:55;7.60;99.90
34873;DHT22;21084;51.098;14.506;2023-11-19T10:46:35;7.80;99.90
34873;DHT22;21084;51.098;14.506;2023-11-19T10:49:04;7.80;99.90
34873;DHT22;21084;51.098;14.506;2023-11-19T10:51:34;7.70;99.90
34873;DHT22;21084;51.098;14.506;2023-11-19T10:54:03;7.80;99.90
34873;DHT22;21084;51.098;14.506;2023-11-19T10:56:33;7.90;99.90
34873;DHT22;21084;51.098;14.506;2023-11-19T10:59:01;8.00;99.90
34873;DHT22;21084;51.098;14.506;2023-11-19T11:01:32;8.20;99.90
34873;DHT22;21084;51.098;14.506;2023-11-19T11:04:03;8.30;99.90
34873;DHT22;21084;51.098;14.506;2023-11-19T11:06:31;8.40;99.90
34873;DHT22;21084;51.098;14.506;2023-11-19T11:09:03;8.40;99.90
34873;DHT22;21084;51.098;14.506;2023-11-19T11:11:31;8.70;99.90
34873;DHT22;21084;51.098;14.506;2023-11-19T11:13:59;8.60;99.90
34873;DHT22;21084;51.098;14.506;2023-11-19T11:16:30;8.70;99.90
34873;DHT22;21084;51.098;14.506;2023-11-19T11:18:59;8.90;99.90
34873;DHT22;21084;51.098;14.506;2023-11-19T11:21:28;8.80;99.90
34873;DHT22;21084;51.098;14.506;2023-11-19T11:24:13;8.90;99.90
34873;DHT22;21084;51.098;14.506;2023-11-19T11:26:50;9.00;99.90
34873;DHT22;21084;51.098;14.506;2023-11-19T11:29:24;9.10;99.90
34873;DHT22;21084;51.098;14.506;2023-11-19T11:31:55;10.10;99.90
34873;DHT22;21084;51.098;14.506;2023-11-19T11:34:34;12.00;99.90
34873;DHT22;21084;51.098;14.506;2023-11-19T11:37:09;13.80;99.90
34873;DHT22;21084;51.098;14.506;2023-11-19T11:39:41;15.70;99.90
34873;DHT22;21084;51.098;14.506;2023-11-19T11:44:59;15.00;99.90
34873;DHT22;21084;51.098;14.506;2023-11-19T11:50:18;12.80;99.90
34873;DHT22;21084;51.098;14.506;2023-11-19T11:55:35;11.20;99.90
34873;DHT22;21084;51.098;14.506;2023-11-19T11:58:05;10.40;99.90
34873;DHT22;21084;51.098;14.506;2023-11-19T12:00:36;10.10;99.90
34873;DHT22;21084;51.098;14.506;2023-11-19T12:03:07;9.80;99.90
34873;DHT22;21084;51.098;14.506;2023-11-19T12:05:38;9.60;99.90
34873;DHT22;21084;51.098;14.506;2023-11-19T12:08:07;11.40;99.90
34873;DHT22;21084;51.098;14.506;2023-11-19T12:10:43;13.20;99.90
34873;DHT22;21084;51.098;14.506;2023-11-19T12:13:12;14.50;99.90
34873;DHT22;21084;51.098;14.506;2023-11-19T12:18:24;13.70;99.90
34873;DHT22;21084;51.098;14.506;2023-11-19T12:20:54;12.20;99.90
34873;DHT22;21084;51.098;14.506;2023-11-19T12:23:22;11.70;99.90
34873;DHT22;21084;51.098;14.506;2023-11-19T12:25:52;11.70;99.90
34873;DHT22;21084;51.098;14.506;2023-11-19T12:28:20;11.90;99.90
34873;DHT22;21084;51.098;14.506;2023-11-19T12:30:49;11.50;99.90
34873;DHT22;21084;51.098;14.506;2023-11-19T12:33:18;11.20;99.90
34873;DHT22;21084;51.098;14.506;2023-11-19T12:35:47;10.90;99.90
34873;DHT22;21084;51.098;14.506;2023-11-19T12:38:19;10.70;99.90
34873;DHT22;21084;51.098;14.506;2023-11-19T12:40:48;10.40;99.90
34873;DHT22;21084;51.098;14.506;2023-11-19T12:43:31;9.80;99.90
34873;DHT22;21084;51.098;14.506;2023-11-19T12:46:17;9.10;99.90
34873;DHT22;21084;51.098;14.506;2023-11-19T12:48:47;8.60;99.90
34873;DHT22;21084;51.098;14.506;2023-11-19T12:51:15;8.30;99.90
34873;DHT22;21084;51.098;14.506;2023-11-19T12:53:47;8.20;99.90
34873;DHT22;21084;51.098;14.506;2023-11-19T12:56:15;8.00;99.90
34873;DHT22;21084;51.098;14.506;2023-11-19T12:58:45;8.10;99.90
34873;DHT22;21084;51.098;14.506;2023-11-19T13:01:15;8.20;99.90
34873;DHT22;21084;51.098;14.506;2023-11-19T13:03:44;8.20;99.90
34873;DHT22;21084;51.098;14.506;2023-11-19T13:06:13;8.30;99.90
34873;DHT22;21084;51.098;14.506;2023-11-19T13:08:43;8.30;99.90
34873;DHT22;21084;51.098;14.506;2023-11-19T13:11:13;8.20;99.90
34873;DHT22;21084;51.098;14.506;2023-11-19T13:13:55;8.20;99.90
34873;DHT22;21084;51.098;14.506;2023-11-19T13:16:24;8.20;99.90
34873;DHT22;21084;51.098;14.506;2023-11-19T13:18:52;8.10;99.90
34873;DHT22;21084;51.098;14.506;2023-11-19T13:21:21;8.10;99.90
34873;DHT22;21084;51.098;14.506;2023-11-19T13:23:49;8.20;99.90
34873;DHT22;21084;51.098;14.506;2023-11-19T13:26:17;8.20;99.90
34873;DHT22;21084;51.098;14.506;2023-11-19T13:28:45;8.30;99.90
34873;DHT22;21084;51.098;14.506;2023-11-19T13:31:15;8.30;99.90
34873;DHT22;21084;51.098;14.506;2023-11-19T13:33:44;8.50;99.90
34873;DHT22;21084;51.098;14.506;2023-11-19T13:36:12;8.90;99.90
34873;DHT22;21084;51.098;14.506;2023-11-19T13:38:43;8.90;99.90
34873;DHT22;21084;51.098;14.506;2023-11-19T13:41:12;8.90;99.90
34873;DHT22;21084;51.098;14.506;2023-11-19T13:43:40;8.90;99.90
34873;DHT22;21084;51.098;14.506;2023-11-19T13:46:09;8.80;99.90
34873;DHT22;21084;51.098;14.506;2023-11-19T13:48:39;8.80;99.90
34873;DHT22;21084;51.098;14.506;2023-11-19T13:51:07;8.70;99.90
34873;DHT22;21084;51.098;14.506;2023-11-19T13:53:37;8.80;99.90
34873;DHT22;21084;51.098;14.506;2023-11-19T13:56:08;8.70;99.90
34873;DHT22;21084;51.098;14.506;2023-11-19T13:58:37;8.70;99.90
34873;DHT22;21084;51.098;14.506;2023-11-19T14:01:05;8.70;99.90
34873;DHT22;21084;51.098;14.506;2023-11-19T14:03:34;8.60;99.90
34873;DHT22;21084;51.098;14.506;2023-11-19T14:06:04;8.60;99.90
34873;DHT22;21084;51.098;14.506;2023-11-19T14:08:33;8.50;99.90
34873;DHT22;21084;51.098;14.506;2023-11-19T14:11:01;8.50;99.90
34873;DHT22;21084;51.098;14.506;2023-11-19T14:13:30;8.60;99.90
34873;DHT22;21084;51.098;14.506;2023-11-19T14:15:58;8.60;99.90
34873;DHT22;21084;51.098;14.506;2023-11-19T14:18:26;8.50;99.90
34873;DHT22;21084;51.098;14.506;2023-11-19T14:20:55;8.40;99.90
34873;DHT22;21084;51.098;14.506;2023-11-19T14:23:25;8.40;99.90
34873;DHT22;21084;51.098;14.506;2023-11-19T14:25:54;8.30;99.90
34873;DHT22;21084;51.098;14.506;2023-11-19T14:28:23;8.20;99.90
34873;DHT22;21084;51.098;14.506;2023-11-19T14:30:53;8.20;99.90
34873;DHT22;21084;51.098;14.506;2023-11-19T14:33:24;8.20;99.90
34873;DHT22;21084;51.098;14.506;2023-11-19T14:35:52;8.30;99.90
34873;DHT22;21084;51.098;14.506;2023-11-19T14:38:21;8.20;99.90
34873;DHT22;21084;51.098;14.506;2023-11-19T14:40:51;8.30;99.90
34873;DHT22;21084;51.098;14.506;2023-11-19T14:43:19;8.30;99.90
34873;DHT22;21084;51.098;14.506;2023-11-19T14:45:47;8.40;99.90
34873;DHT22;21084;51.098;14.506;2023-11-19T14:48:16;8.30;99.90
34873;DHT22;21084;51.098;14.506;2023-11-19T14:50:45;8.30;99.90
34873;DHT22;21084;51.098;14.506;2023-11-19T14:53:14;8.20;99.90
34873;DHT22;21084;51.098;14.506;2023-11-19T14:55:42;8.20;99.90
34873;DHT22;21084;51.098;14.506;2023-11-19T14:58:12;8.20;99.90
34873;DHT22;21084;51.098;14.506;2023-11-19T15:00:43;8.20;99.90
34873;DHT22;21084;51.098;14.506;2023-11-19T15:03:13;8.40;99.90
34873;DHT22;21084;51.098;14.506;2023-11-19T15:05:43;8.40;99.90
34873;DHT22;21084;51.098;14.506;2023-11-19T15:08:12;8.50;99.90
34873;DHT22;21084;51.098;14.506;2023-11-19T15:10:43;8.60;99.90
34873;DHT22;21084;51.098;14.506;2023-11-19T15:13:13;8.50;99.90
34873;DHT22;21084;51.098;14.506;2023-11-19T15:15:41;8.50;99.90
34873;DHT22;21084;51.098;14.506;2023-11-19T15:18:10;8.60;99.90
34873;DHT22;21084;51.098;14.506;2023-11-19T15:20:38;8.60;99.90
34873;DHT22;21084;51.098;14.506;2023-11-19T15:23:07;8.60;99.90
34873;DHT22;21084;51.098;14.506;2023-11-19T15:25:36;8.60;99.90
34873;DHT22;21084;51.098;14.506;2023-11-19T15:28:05;8.70;99.90
34873;DHT22;21084;51.098;14.506;2023-11-19T15:30:34;8.70;99.90
34873;DHT22;21084;51.098;14.506;2023-11-19T15:33:03;8.70;99.90
34873;DHT22;21084;51.098;14.506;2023-11-19T15:35:31;8.70;99.90
34873;DHT22;21084;51.098;14.506;2023-11-19T15:37:59;8.70;99.90
34873;DHT22;21084;51.098;14.506;2023-11-19T15:40:28;8.70;99.90
34873;DHT22;21084;51.098;14.506;2023-11-19T15:42:56;8.70;99.90
34873;DHT22;21084;51.098;14.506;2023-11-19T15:45:26;8.60;99.90
34873;DHT22;21084;51.098;14.506;2023-11-19T15:47:55;8.70;99.90
34873;DHT22;21084;51.098;14.506;2023-11-19T15:50:24;8.50;99.90
34873;DHT22;21084;51.098;14.506;2023-11-19T15:52:52;8.50;99.90
34873;DHT22;21084;51.098;14.506;2023-11-19T15:55:20;8.40;99.90